Impacts TAF Board INFO
FOR SITUATIONAL AWARENESS. NOT TO BE USED FOR FLIGHT PLANNING PURPOSES.
IDs:

KEWR - Newark Intl, NJ, US

Issued at 0835 UTC 18 Dec 2017
Updated at 1054 UTC 18 Dec 2017
Potential Impact None Slight Moderate High
Time0919Z 18/11Z 18/12Z 18/13Z 18/14Z 18/15Z 18/16Z 18/17Z 18/18Z 18/19Z 18/20Z 18/21Z 18/22Z 18/23Z>>
Type OBS PRVL PRVL PRVL PRVL PRVL PRVL PRVL PRVL PRVL PRVL PRVL PRVL PRVL
VIS 10 >6 >6 >6 >6 >6 >6 >6 >6 >6 >6 >6 >6 >6
CIG 12 15 15 15 15 10 10 10 50 50 50 50 70 70
Cover OVC OVC OVC OVC OVC OVC OVC OVC BKN BKN BKN BKN BKN BKN
FltCat MVFR MVFR MVFR MVFR MVFR MVFR MVFR MVFR VFR VFR VFR VFR VFR VFR
WX -RA -SHRA -SHRA -SHRA -SHRA -- -- -- -- -- -- -- -- --
WDir 360 40 40 40 40 VRB VRB VRB 290 290 290 290 240 240
WSpd 7 5 5 5 5 4 4 4 6 6 6 6 7 7
WGst -- -- -- -- -- -- -- -- -- -- -- -- -- --

Raw TAF
KEWR 180835Z 1809/1912 04005KT P6SM -SHRA OVC015
  FM181500 VRB04KT P6SM OVC010
  FM181800 29006KT P6SM SCT015 BKN050
  FM182200 24007KT P6SM BKN070
  FM190600 26006KT P6SM SCT050


Raw METAR
KEWR 180919Z 36007KT 10SM -RA BKN012 OVC040 01/M01 A3015 RMK AO2 SNE05 P0000 T00111006
KEWR 180851Z 03004KT 9SM -RASN FEW014 SCT025 OVC060 02/M01 A3014 RMK AO2 PLB0759E18SNB41 SLP207 P0001 60004 T00171006 58016
KEWR 180819Z 07004KT 9SM -RA FEW016 SCT028 OVC050 02/M01 A3016 RMK AO2 PLB0759E18 P0000 T00171011
KEWR 180759Z 06006KT 5SM -RAPL SCT016 BKN028 OVC050 02/M01 A3017 RMK AO2 PLB59 P0000 T00171011
KEWR 180751Z 06005KT 6SM -RA SCT016 BKN028 OVC050 02/M01 A3017 RMK AO2 PLE28 SLP217 P0002 T00171011

METAR Board
Radar Display
Forecast Discussion

FOR SITUATIONAL AWARENESS. NOT TO BE USED FOR FLIGHT PLANNING PURPOSES.